createdAt,value
2018-10-16T00:02:25.121Z,101237.00
2018-10-16T00:07:27.285Z,101243.05
2018-10-16T00:12:29.425Z,101239.30
2018-10-16T00:17:31.543Z,101239.89
2018-10-16T00:22:33.691Z,101240.38
2018-10-16T00:27:35.836Z,101239.95
2018-10-16T00:32:38.377Z,101238.47
2018-10-16T00:37:40.468Z,101239.13
2018-10-16T00:42:42.590Z,101239.42
2018-10-16T00:47:44.741Z,101244.80
2018-10-16T00:52:46.881Z,101249.84
2018-10-16T00:57:49.024Z,101237.86
2018-10-16T01:02:51.872Z,101239.34
2018-10-16T01:07:54.008Z,101247.58
2018-10-16T01:12:56.214Z,101248.94
2018-10-16T01:17:58.342Z,101251.14
2018-10-16T01:23:00.474Z,101249.03
2018-10-16T01:28:02.645Z,101252.32
2018-10-16T01:33:04.803Z,101257.11
2018-10-16T01:38:06.906Z,101260.21
2018-10-16T01:43:09.022Z,101256.11
2018-10-16T01:48:11.188Z,101257.88
2018-10-16T01:53:13.311Z,101262.69
2018-10-16T01:58:15.450Z,101269.33
2018-10-16T02:03:17.574Z,101271.14
2018-10-16T02:08:19.704Z,101275.29
2018-10-16T02:13:21.847Z,101267.90
2018-10-16T02:18:24.002Z,101268.72
2018-10-16T02:23:26.115Z,101275.30
2018-10-16T02:28:28.231Z,101278.34
2018-10-16T02:33:30.333Z,101282.53
2018-10-16T02:38:32.433Z,101286.81
2018-10-16T02:43:34.526Z,101286.88
2018-10-16T02:48:37.355Z,101286.96
2018-10-16T02:53:39.577Z,101286.88
2018-10-16T02:58:41.686Z,101286.38
2018-10-16T03:03:43.821Z,101291.59
2018-10-16T03:08:45.935Z,101287.20
2018-10-16T03:13:48.082Z,101290.39
2018-10-16T03:18:50.247Z,101290.03
2018-10-16T03:23:52.366Z,101291.77
2018-10-16T03:28:54.488Z,101286.41
2018-10-16T03:33:56.648Z,101279.34
2018-10-16T03:38:58.746Z,101280.84
2018-10-16T03:44:01.700Z,101275.98
2018-10-16T03:49:04.186Z,101284.98
2018-10-16T03:54:06.675Z,101286.48
2018-10-16T03:59:08.806Z,101291.44
2018-10-16T04:04:10.921Z,101288.66
2018-10-16T04:09:13.036Z,101290.54
2018-10-16T04:14:15.186Z,101297.06
2018-10-16T04:19:17.307Z,101294.82
2018-10-16T04:24:19.415Z,101300.41
2018-10-16T04:29:21.656Z,101296.62
2018-10-16T04:34:23.674Z,101296.70
2018-10-16T04:39:25.826Z,101301.85
2018-10-16T04:44:27.930Z,101300.95
2018-10-16T04:49:30.079Z,101307.30
2018-10-16T04:54:32.206Z,101311.55
2018-10-16T04:59:34.369Z,101315.97
2018-10-16T05:04:36.541Z,101322.38
2018-10-16T05:09:38.668Z,101324.17
2018-10-16T05:14:40.790Z,101322.47
2018-10-16T05:19:42.930Z,101335.00
2018-10-16T05:24:45.071Z,101335.02
2018-10-16T05:29:47.225Z,101342.80
2018-10-16T05:34:49.351Z,101347.38
2018-10-16T05:39:51.462Z,101353.55
2018-10-16T05:44:53.643Z,101367.47
2018-10-16T05:49:55.803Z,101366.02
2018-10-16T05:54:57.992Z,101371.55
2018-10-16T06:00:11.989Z,101377.20
2018-10-16T06:05:14.148Z,101388.31
2018-10-16T06:10:16.286Z,101401.97
2018-10-16T06:15:18.462Z,101408.59
2018-10-16T06:20:20.574Z,101416.61
2018-10-16T06:25:22.755Z,101417.02
2018-10-16T06:30:25.043Z,101416.87
2018-10-16T06:35:27.049Z,101421.14
2018-10-16T06:40:29.264Z,101422.36
2018-10-16T06:45:31.354Z,101439.28
2018-10-16T06:50:33.538Z,101438.73
2018-10-16T06:55:35.723Z,101443.86
2018-10-16T07:00:37.901Z,101442.36
2018-10-16T07:05:40.026Z,101445.26
2018-10-16T07:10:42.185Z,101445.12
2018-10-16T07:15:44.301Z,101447.64
2018-10-16T07:20:46.449Z,101438.52
2018-10-16T07:25:48.581Z,101445.42
2018-10-16T07:30:50.733Z,101443.16
2018-10-16T07:35:52.830Z,101445.81
2018-10-16T07:40:54.965Z,101449.09
2018-10-16T07:45:57.129Z,101454.33
2018-10-16T07:50:59.266Z,101457.23
2018-10-16T07:56:01.421Z,101459.84
2018-10-16T08:01:03.616Z,101474.00
2018-10-16T08:06:06.117Z,101470.98
2018-10-16T08:11:08.290Z,101472.23
2018-10-16T08:16:10.444Z,101470.84
2018-10-16T08:21:12.567Z,101478.67
2018-10-16T08:26:14.733Z,101477.98
2018-10-16T08:31:16.871Z,101480.55
2018-10-16T08:36:19.132Z,101482.85
2018-10-16T08:41:25.186Z,101478.19
2018-10-16T08:46:38.771Z,101475.23
2018-10-16T08:51:49.474Z,101475.69
2018-10-16T08:56:51.635Z,101477.19
2018-10-16T09:01:53.782Z,101479.32
2018-10-16T09:06:55.980Z,101477.37
2018-10-16T09:11:58.122Z,101477.02
2018-10-16T09:17:00.282Z,101478.69
2018-10-16T09:22:02.431Z,101476.79
2018-10-16T09:27:04.807Z,101479.36
2018-10-16T09:32:06.988Z,101489.05
2018-10-16T09:37:09.094Z,101489.35
2018-10-16T09:42:11.273Z,101492.29
2018-10-16T09:47:13.434Z,101493.77
2018-10-16T09:52:15.623Z,101493.09
2018-10-16T09:57:17.813Z,101492.17
2018-10-16T10:02:19.988Z,101485.08
2018-10-16T10:07:22.149Z,101486.51
2018-10-16T10:12:24.295Z,101487.14
2018-10-16T10:17:26.414Z,101491.09
2018-10-16T10:22:28.618Z,101496.05
2018-10-16T10:27:31.196Z,101493.06
2018-10-16T10:32:33.347Z,101493.20
2018-10-16T10:37:35.475Z,101496.39
2018-10-16T10:42:37.611Z,101491.41
2018-10-16T10:47:39.779Z,101494.30
2018-10-16T10:52:41.951Z,101490.84
2018-10-16T10:57:44.211Z,101491.63
2018-10-16T11:02:47.584Z,101490.89
2018-10-16T11:07:49.730Z,101489.44
2018-10-16T11:12:51.851Z,101483.84
2018-10-16T11:17:54.847Z,101488.96
2018-10-16T11:22:57.000Z,101488.68
2018-10-16T11:27:59.339Z,101490.20
2018-10-16T11:33:01.526Z,101493.20
2018-10-16T11:38:03.751Z,101484.78
2018-10-16T11:43:05.889Z,101488.89
2018-10-16T11:48:08.120Z,101490.47
2018-10-16T11:53:10.353Z,101495.70
2018-10-16T11:58:12.511Z,101487.08
2018-10-16T12:03:14.700Z,101487.27
2018-10-16T12:08:16.882Z,101495.77
2018-10-16T12:13:19.016Z,101490.15
2018-10-16T12:19:24.082Z,101488.65
2018-10-16T12:24:26.228Z,101497.91
2018-10-16T12:29:28.402Z,101494.88
2018-10-16T12:34:30.535Z,101495.52
2018-10-16T12:39:32.697Z,101495.34
2018-10-16T12:44:34.824Z,101502.80
2018-10-16T12:49:36.955Z,101500.77
2018-10-16T12:54:39.143Z,101497.42
2018-10-16T12:59:41.343Z,101493.87
2018-10-16T13:04:43.475Z,101497.58
2018-10-16T13:09:45.655Z,101503.95
2018-10-16T13:14:47.800Z,101507.38
2018-10-16T13:19:49.921Z,101495.44
2018-10-16T13:24:52.047Z,101495.73
2018-10-16T13:29:54.218Z,101500.49
2018-10-16T13:34:56.381Z,101493.00
2018-10-16T13:39:58.596Z,101497.41
2018-10-16T13:45:01.061Z,101497.26
2018-10-16T13:50:04.184Z,101503.81
2018-10-16T13:55:07.092Z,101502.06
2018-10-16T14:00:20.267Z,101509.76
2018-10-16T14:05:22.433Z,101516.75
2018-10-16T14:10:24.592Z,101517.18
2018-10-16T14:15:26.748Z,101513.38
2018-10-16T14:20:28.912Z,101517.28
2018-10-16T14:25:31.113Z,101516.00
2018-10-16T14:30:33.629Z,101523.50
2018-10-16T14:35:35.759Z,101528.44
2018-10-16T14:40:38.005Z,101531.63
2018-10-16T14:45:40.099Z,101536.16
2018-10-16T14:50:42.237Z,101532.14
2018-10-16T14:55:44.456Z,101534.63
2018-10-16T15:00:46.628Z,101543.02
2018-10-16T15:05:48.807Z,101548.02
2018-10-16T15:10:51.010Z,101547.97
2018-10-16T15:15:53.189Z,101551.80
2018-10-16T15:20:55.319Z,101554.64
2018-10-16T15:25:57.518Z,101552.38
2018-10-16T15:30:59.712Z,101555.50
2018-10-16T15:36:01.893Z,101562.34
2018-10-16T15:41:04.355Z,101566.52
2018-10-16T15:46:06.554Z,101567.20
2018-10-16T15:51:08.751Z,101565.97
2018-10-16T15:56:11.058Z,101566.13
2018-10-16T16:01:13.097Z,101574.30
2018-10-16T16:06:15.279Z,101575.45
2018-10-16T16:11:17.478Z,101590.77
2018-10-16T16:16:19.608Z,101589.77
2018-10-16T16:21:21.809Z,101589.03
2018-10-16T16:26:24.042Z,101585.64
2018-10-16T16:31:26.169Z,101588.98
2018-10-16T16:36:28.378Z,101595.20
2018-10-16T16:41:30.480Z,101600.95
2018-10-16T16:46:32.656Z,101607.81
2018-10-16T16:51:34.832Z,101615.23
2018-10-16T16:56:37.015Z,101621.41
2018-10-16T17:01:39.224Z,101624.13
2018-10-16T17:06:41.409Z,101633.48
2018-10-16T17:11:43.628Z,101633.45
2018-10-16T17:16:45.795Z,101634.26
2018-10-16T17:21:47.945Z,101631.56
2018-10-16T17:26:50.177Z,101635.48
2018-10-16T17:31:52.280Z,101640.86
2018-10-16T17:36:54.493Z,101642.17
2018-10-16T17:41:56.714Z,101649.02
2018-10-16T17:46:58.960Z,101646.06
2018-10-16T17:52:01.351Z,101649.98
2018-10-16T17:57:03.757Z,101631.48
2018-10-16T18:02:05.996Z,101654.17
2018-10-16T18:07:08.205Z,101654.80
2018-10-16T18:12:10.440Z,101660.80
2018-10-16T18:17:12.651Z,101663.89
2018-10-16T18:22:14.862Z,101667.25
2018-10-16T18:27:17.053Z,101667.83
2018-10-16T18:32:19.446Z,101668.14
2018-10-16T18:37:21.674Z,101669.70
2018-10-16T18:42:23.918Z,101673.13
2018-10-16T18:47:26.206Z,101677.57
2018-10-16T18:52:28.513Z,101677.94
2018-10-16T18:57:31.491Z,101677.94
2018-10-16T19:02:33.941Z,101680.42
2018-10-16T19:07:37.042Z,101676.38
2018-10-16T19:12:42.091Z,101671.11
2018-10-16T19:17:46.430Z,101674.97
2018-10-16T19:22:49.840Z,101667.72
2018-10-16T19:27:52.582Z,101675.87
2018-10-16T19:32:55.201Z,101669.90
2018-10-16T19:37:57.811Z,101674.66
2018-10-16T19:43:01.063Z,101665.67
2018-10-16T19:48:05.333Z,101670.06
2018-10-16T19:53:07.950Z,101669.20
2018-10-16T19:58:10.565Z,101669.23
2018-10-16T20:03:12.967Z,101671.55
2018-10-16T20:08:15.481Z,101671.55
2018-10-16T20:13:17.707Z,101670.48
2018-10-16T20:18:20.300Z,101669.82
2018-10-16T20:23:22.521Z,101665.02
2018-10-16T20:28:24.675Z,101669.88
2018-10-16T20:33:26.860Z,101665.33
2018-10-16T20:38:29.030Z,101662.19
2018-10-16T20:43:31.405Z,101648.95
2018-10-16T20:48:33.657Z,101652.98
2018-10-16T20:53:35.839Z,101646.84
2018-10-16T20:58:38.021Z,101649.45
2018-10-16T21:03:40.164Z,101649.99
2018-10-16T21:08:42.317Z,101650.94
2018-10-16T21:13:44.469Z,101654.25
2018-10-16T21:18:46.632Z,101652.00
2018-10-16T21:23:48.761Z,101642.38
2018-10-16T21:28:50.881Z,101642.94
2018-10-16T21:33:53.082Z,101636.33
2018-10-16T21:38:55.189Z,101624.20
2018-10-16T21:43:57.333Z,101632.47
2018-10-16T21:48:59.544Z,101629.96
2018-10-16T21:54:01.651Z,101633.35
2018-10-16T21:59:04.796Z,101626.83
2018-10-16T22:04:06.986Z,101623.48
2018-10-16T22:09:11.667Z,101618.28
2018-10-16T22:14:13.881Z,101619.23
2018-10-16T22:19:16.333Z,101614.13
2018-10-16T22:24:18.431Z,101615.77
2018-10-16T22:29:20.615Z,101606.92
2018-10-16T22:34:22.731Z,101605.98
2018-10-16T22:39:24.897Z,101603.00
2018-10-16T22:44:27.063Z,101603.37
2018-10-16T22:49:29.215Z,101599.14
2018-10-16T22:54:31.341Z,101594.89
2018-10-16T22:59:33.542Z,101597.52
2018-10-16T23:04:36.050Z,101590.61
2018-10-16T23:09:38.242Z,101596.44
2018-10-16T23:14:40.360Z,101597.06
2018-10-16T23:19:42.881Z,101606.91
2018-10-16T23:24:45.011Z,101605.86
2018-10-16T23:29:47.118Z,101609.20
2018-10-16T23:34:49.288Z,101611.31
2018-10-16T23:39:51.436Z,101611.31
2018-10-16T23:44:53.586Z,101605.20
2018-10-16T23:49:55.705Z,101609.42
2018-10-16T23:54:57.854Z,101606.00
2018-10-16T23:59:59.994Z,101599.09
